sensor_id;sensor_type;location;lat;lon;timestamp;P1;durP1;ratioP1;P2;durP2;ratioP2
16512;SDS011;8369;48.030;11.598;2022-11-09T00:01:26;4.03;;;2.40;;
16512;SDS011;8369;48.030;11.598;2022-11-09T00:03:54;5.60;;;2.57;;
16512;SDS011;8369;48.030;11.598;2022-11-09T00:06:21;3.40;;;2.37;;
16512;SDS011;8369;48.030;11.598;2022-11-09T00:08:48;4.40;;;2.83;;
16512;SDS011;8369;48.030;11.598;2022-11-09T00:11:14;3.17;;;2.80;;
16512;SDS011;8369;48.030;11.598;2022-11-09T00:13:41;3.50;;;2.47;;
16512;SDS011;8369;48.030;11.598;2022-11-09T00:16:08;3.40;;;2.37;;
16512;SDS011;8369;48.030;11.598;2022-11-09T00:18:36;2.53;;;2.10;;
16512;SDS011;8369;48.030;11.598;2022-11-09T00:21:09;3.33;;;2.10;;
16512;SDS011;8369;48.030;11.598;2022-11-09T00:23:37;1.90;;;1.70;;
16512;SDS011;8369;48.030;11.598;2022-11-09T00:26:04;1.97;;;1.50;;
16512;SDS011;8369;48.030;11.598;2022-11-09T00:28:32;2.30;;;1.93;;
16512;SDS011;8369;48.030;11.598;2022-11-09T00:31:02;2.27;;;1.70;;
16512;SDS011;8369;48.030;11.598;2022-11-09T00:33:29;2.47;;;1.80;;
16512;SDS011;8369;48.030;11.598;2022-11-09T00:35:55;2.97;;;2.03;;
16512;SDS011;8369;48.030;11.598;2022-11-09T00:38:21;2.53;;;2.03;;
16512;SDS011;8369;48.030;11.598;2022-11-09T00:40:47;2.67;;;2.13;;
16512;SDS011;8369;48.030;11.598;2022-11-09T00:43:14;3.43;;;1.80;;
16512;SDS011;8369;48.030;11.598;2022-11-09T00:45:40;3.57;;;1.80;;
16512;SDS011;8369;48.030;11.598;2022-11-09T00:48:06;3.97;;;1.80;;
16512;SDS011;8369;48.030;11.598;2022-11-09T00:50:33;2.20;;;1.90;;
16512;SDS011;8369;48.030;11.598;2022-11-09T00:52:59;4.33;;;1.70;;
16512;SDS011;8369;48.030;11.598;2022-11-09T00:55:25;3.27;;;1.80;;
16512;SDS011;8369;48.030;11.598;2022-11-09T00:57:51;2.37;;;1.70;;
16512;SDS011;8369;48.030;11.598;2022-11-09T01:00:18;1.83;;;1.63;;
16512;SDS011;8369;48.030;11.598;2022-11-09T01:02:46;2.20;;;1.60;;
16512;SDS011;8369;48.030;11.598;2022-11-09T01:05:14;2.73;;;1.30;;
16512;SDS011;8369;48.030;11.598;2022-11-09T01:07:39;2.63;;;1.43;;
16512;SDS011;8369;48.030;11.598;2022-11-09T01:10:05;1.60;;;1.50;;
16512;SDS011;8369;48.030;11.598;2022-11-09T01:12:32;3.70;;;1.70;;
16512;SDS011;8369;48.030;11.598;2022-11-09T01:14:58;2.73;;;1.40;;
16512;SDS011;8369;48.030;11.598;2022-11-09T01:17:24;2.93;;;1.60;;
16512;SDS011;8369;48.030;11.598;2022-11-09T01:19:50;3.33;;;1.60;;
16512;SDS011;8369;48.030;11.598;2022-11-09T01:22:16;2.00;;;1.70;;
16512;SDS011;8369;48.030;11.598;2022-11-09T01:24:43;1.60;;;1.43;;
16512;SDS011;8369;48.030;11.598;2022-11-09T01:27:09;1.50;;;1.40;;
16512;SDS011;8369;48.030;11.598;2022-11-09T01:29:35;2.97;;;1.57;;
16512;SDS011;8369;48.030;11.598;2022-11-09T01:32:01;1.70;;;1.60;;
16512;SDS011;8369;48.030;11.598;2022-11-09T01:34:27;2.80;;;1.90;;
16512;SDS011;8369;48.030;11.598;2022-11-09T01:36:53;4.50;;;1.83;;
16512;SDS011;8369;48.030;11.598;2022-11-09T01:39:19;2.80;;;1.90;;
16512;SDS011;8369;48.030;11.598;2022-11-09T01:41:45;8.37;;;2.50;;
16512;SDS011;8369;48.030;11.598;2022-11-09T01:44:13;2.87;;;1.97;;
16512;SDS011;8369;48.030;11.598;2022-11-09T01:46:52;2.40;;;2.00;;
16512;SDS011;8369;48.030;11.598;2022-11-09T01:52:24;4.57;;;1.93;;
16512;SDS011;8369;48.030;11.598;2022-11-09T01:58:01;2.83;;;2.23;;
16512;SDS011;8369;48.030;11.598;2022-11-09T02:00:33;3.30;;;1.90;;
16512;SDS011;8369;48.030;11.598;2022-11-09T02:03:06;3.97;;;2.40;;
16512;SDS011;8369;48.030;11.598;2022-11-09T02:05:37;3.10;;;2.00;;
16512;SDS011;8369;48.030;11.598;2022-11-09T02:08:05;3.80;;;1.93;;
16512;SDS011;8369;48.030;11.598;2022-11-09T02:10:34;2.87;;;2.10;;
16512;SDS011;8369;48.030;11.598;2022-11-09T02:13:21;4.43;;;1.97;;
16512;SDS011;8369;48.030;11.598;2022-11-09T02:15:50;3.50;;;1.87;;
16512;SDS011;8369;48.030;11.598;2022-11-09T02:18:17;3.37;;;2.20;;
16512;SDS011;8369;48.030;11.598;2022-11-09T02:20:51;2.60;;;1.67;;
16512;SDS011;8369;48.030;11.598;2022-11-09T02:23:18;3.93;;;1.93;;
16512;SDS011;8369;48.030;11.598;2022-11-09T02:25:45;2.87;;;1.97;;
16512;SDS011;8369;48.030;11.598;2022-11-09T02:28:17;2.10;;;1.60;;
16512;SDS011;8369;48.030;11.598;2022-11-09T02:30:44;5.33;;;1.53;;
16512;SDS011;8369;48.030;11.598;2022-11-09T02:33:13;2.93;;;1.90;;
16512;SDS011;8369;48.030;11.598;2022-11-09T02:35:39;2.03;;;1.70;;
16512;SDS011;8369;48.030;11.598;2022-11-09T02:38:07;1.90;;;1.60;;
16512;SDS011;8369;48.030;11.598;2022-11-09T02:40:35;2.17;;;1.53;;
16512;SDS011;8369;48.030;11.598;2022-11-09T02:43:02;2.10;;;1.63;;
16512;SDS011;8369;48.030;11.598;2022-11-09T02:45:30;3.53;;;2.00;;
16512;SDS011;8369;48.030;11.598;2022-11-09T02:47:56;1.70;;;1.60;;
16512;SDS011;8369;48.030;11.598;2022-11-09T02:50:21;5.20;;;2.30;;
16512;SDS011;8369;48.030;11.598;2022-11-09T02:52:47;8.83;;;4.17;;
16512;SDS011;8369;48.030;11.598;2022-11-09T02:55:13;5.17;;;3.27;;
16512;SDS011;8369;48.030;11.598;2022-11-09T02:57:39;5.73;;;3.30;;
16512;SDS011;8369;48.030;11.598;2022-11-09T03:00:05;6.97;;;4.90;;
16512;SDS011;8369;48.030;11.598;2022-11-09T03:02:32;9.17;;;5.20;;
16512;SDS011;8369;48.030;11.598;2022-11-09T03:04:58;5.73;;;3.73;;
16512;SDS011;8369;48.030;11.598;2022-11-09T03:07:24;9.20;;;5.00;;
16512;SDS011;8369;48.030;11.598;2022-11-09T03:09:49;7.73;;;5.00;;
16512;SDS011;8369;48.030;11.598;2022-11-09T03:12:17;7.03;;;4.37;;
16512;SDS011;8369;48.030;11.598;2022-11-09T03:14:53;6.33;;;4.10;;
16512;SDS011;8369;48.030;11.598;2022-11-09T03:17:20;6.93;;;4.17;;
16512;SDS011;8369;48.030;11.598;2022-11-09T03:19:46;4.50;;;3.20;;
16512;SDS011;8369;48.030;11.598;2022-11-09T03:22:12;4.80;;;3.60;;
16512;SDS011;8369;48.030;11.598;2022-11-09T03:24:39;4.03;;;2.60;;
16512;SDS011;8369;48.030;11.598;2022-11-09T03:27:04;4.53;;;2.90;;
16512;SDS011;8369;48.030;11.598;2022-11-09T03:29:31;4.57;;;3.33;;
16512;SDS011;8369;48.030;11.598;2022-11-09T03:31:57;4.17;;;2.90;;
16512;SDS011;8369;48.030;11.598;2022-11-09T03:34:24;3.40;;;2.40;;
16512;SDS011;8369;48.030;11.598;2022-11-09T03:36:50;2.80;;;2.27;;
16512;SDS011;8369;48.030;11.598;2022-11-09T03:39:15;4.47;;;2.40;;
16512;SDS011;8369;48.030;11.598;2022-11-09T03:41:41;3.07;;;2.30;;
16512;SDS011;8369;48.030;11.598;2022-11-09T03:44:07;2.80;;;1.90;;
16512;SDS011;8369;48.030;11.598;2022-11-09T03:46:33;4.23;;;2.23;;
16512;SDS011;8369;48.030;11.598;2022-11-09T03:48:59;2.57;;;2.00;;
16512;SDS011;8369;48.030;11.598;2022-11-09T03:51:25;3.13;;;2.00;;
16512;SDS011;8369;48.030;11.598;2022-11-09T03:53:51;2.70;;;1.90;;
16512;SDS011;8369;48.030;11.598;2022-11-09T03:56:17;2.33;;;1.83;;
16512;SDS011;8369;48.030;11.598;2022-11-09T03:58:43;4.00;;;2.20;;
16512;SDS011;8369;48.030;11.598;2022-11-09T04:01:09;2.57;;;2.07;;
16512;SDS011;8369;48.030;11.598;2022-11-09T04:03:35;3.23;;;2.17;;
16512;SDS011;8369;48.030;11.598;2022-11-09T04:06:02;2.10;;;1.60;;
16512;SDS011;8369;48.030;11.598;2022-11-09T04:08:28;2.87;;;1.70;;
16512;SDS011;8369;48.030;11.598;2022-11-09T04:10:54;2.67;;;1.70;;
16512;SDS011;8369;48.030;11.598;2022-11-09T04:13:20;1.80;;;1.20;;
16512;SDS011;8369;48.030;11.598;2022-11-09T04:15:46;1.97;;;1.77;;
16512;SDS011;8369;48.030;11.598;2022-11-09T04:18:13;2.13;;;1.90;;
16512;SDS011;8369;48.030;11.598;2022-11-09T04:20:40;3.03;;;1.90;;
16512;SDS011;8369;48.030;11.598;2022-11-09T04:23:07;3.03;;;1.93;;
16512;SDS011;8369;48.030;11.598;2022-11-09T04:25:36;3.40;;;1.83;;
16512;SDS011;8369;48.030;11.598;2022-11-09T04:28:03;1.97;;;1.60;;
16512;SDS011;8369;48.030;11.598;2022-11-09T04:30:31;2.47;;;1.70;;
16512;SDS011;8369;48.030;11.598;2022-11-09T04:32:59;2.70;;;1.70;;
16512;SDS011;8369;48.030;11.598;2022-11-09T04:35:26;1.67;;;1.37;;
16512;SDS011;8369;48.030;11.598;2022-11-09T04:40:22;3.00;;;1.40;;
16512;SDS011;8369;48.030;11.598;2022-11-09T04:42:48;2.50;;;1.50;;
16512;SDS011;8369;48.030;11.598;2022-11-09T04:45:14;1.33;;;1.23;;
16512;SDS011;8369;48.030;11.598;2022-11-09T04:47:40;1.40;;;1.30;;
16512;SDS011;8369;48.030;11.598;2022-11-09T04:50:06;2.83;;;1.37;;
16512;SDS011;8369;48.030;11.598;2022-11-09T04:52:32;3.40;;;1.23;;
16512;SDS011;8369;48.030;11.598;2022-11-09T04:54:58;1.60;;;1.30;;
16512;SDS011;8369;48.030;11.598;2022-11-09T04:57:24;2.93;;;1.10;;
16512;SDS011;8369;48.030;11.598;2022-11-09T04:59:50;2.37;;;1.17;;
16512;SDS011;8369;48.030;11.598;2022-11-09T05:02:16;1.20;;;1.10;;
16512;SDS011;8369;48.030;11.598;2022-11-09T05:04:42;2.33;;;1.10;;
16512;SDS011;8369;48.030;11.598;2022-11-09T05:07:08;3.00;;;1.27;;
16512;SDS011;8369;48.030;11.598;2022-11-09T05:09:34;1.50;;;1.10;;
16512;SDS011;8369;48.030;11.598;2022-11-09T05:12:00;1.27;;;1.17;;
16512;SDS011;8369;48.030;11.598;2022-11-09T05:14:26;1.53;;;1.10;;
16512;SDS011;8369;48.030;11.598;2022-11-09T05:16:53;1.53;;;1.37;;
16512;SDS011;8369;48.030;11.598;2022-11-09T05:19:19;1.13;;;1.10;;
16512;SDS011;8369;48.030;11.598;2022-11-09T05:21:45;1.43;;;1.23;;
16512;SDS011;8369;48.030;11.598;2022-11-09T05:24:10;1.30;;;1.20;;
16512;SDS011;8369;48.030;11.598;2022-11-09T05:26:38;1.80;;;1.27;;
16512;SDS011;8369;48.030;11.598;2022-11-09T05:29:06;5.03;;;1.40;;
16512;SDS011;8369;48.030;11.598;2022-11-09T05:31:35;2.83;;;2.10;;
16512;SDS011;8369;48.030;11.598;2022-11-09T05:34:01;3.10;;;1.80;;
16512;SDS011;8369;48.030;11.598;2022-11-09T05:36:28;5.10;;;2.83;;
16512;SDS011;8369;48.030;11.598;2022-11-09T05:38:55;5.40;;;2.63;;
16512;SDS011;8369;48.030;11.598;2022-11-09T05:41:22;6.43;;;3.30;;
16512;SDS011;8369;48.030;11.598;2022-11-09T05:43:48;12.13;;;3.53;;
16512;SDS011;8369;48.030;11.598;2022-11-09T05:46:15;7.33;;;3.33;;
16512;SDS011;8369;48.030;11.598;2022-11-09T05:48:42;9.03;;;3.73;;
16512;SDS011;8369;48.030;11.598;2022-11-09T05:51:09;6.90;;;3.90;;
16512;SDS011;8369;48.030;11.598;2022-11-09T05:53:36;8.90;;;3.03;;
16512;SDS011;8369;48.030;11.598;2022-11-09T05:56:10;6.33;;;3.33;;
16512;SDS011;8369;48.030;11.598;2022-11-09T05:58:37;7.73;;;3.30;;
16512;SDS011;8369;48.030;11.598;2022-11-09T06:01:03;6.50;;;3.30;;
16512;SDS011;8369;48.030;11.598;2022-11-09T06:03:30;6.50;;;3.00;;
16512;SDS011;8369;48.030;11.598;2022-11-09T06:06:00;7.17;;;3.20;;
16512;SDS011;8369;48.030;11.598;2022-11-09T06:08:28;9.53;;;3.40;;
16512;SDS011;8369;48.030;11.598;2022-11-09T06:10:58;7.57;;;3.40;;
16512;SDS011;8369;48.030;11.598;2022-11-09T06:13:25;6.77;;;3.10;;
16512;SDS011;8369;48.030;11.598;2022-11-09T06:15:53;5.13;;;2.53;;
16512;SDS011;8369;48.030;11.598;2022-11-09T06:18:23;4.40;;;2.77;;
16512;SDS011;8369;48.030;11.598;2022-11-09T06:20:50;6.87;;;2.60;;
16512;SDS011;8369;48.030;11.598;2022-11-09T06:23:20;4.63;;;2.43;;
16512;SDS011;8369;48.030;11.598;2022-11-09T06:26:00;11.17;;;3.00;;
16512;SDS011;8369;48.030;11.598;2022-11-09T06:28:28;5.00;;;3.00;;
16512;SDS011;8369;48.030;11.598;2022-11-09T06:30:57;4.70;;;2.40;;
16512;SDS011;8369;48.030;11.598;2022-11-09T06:33:24;3.90;;;2.23;;
16512;SDS011;8369;48.030;11.598;2022-11-09T06:35:51;8.33;;;2.40;;
16512;SDS011;8369;48.030;11.598;2022-11-09T06:38:20;6.53;;;2.53;;
16512;SDS011;8369;48.030;11.598;2022-11-09T06:40:49;4.10;;;2.30;;
16512;SDS011;8369;48.030;11.598;2022-11-09T06:43:16;4.43;;;2.30;;
16512;SDS011;8369;48.030;11.598;2022-11-09T06:45:42;8.00;;;2.43;;
16512;SDS011;8369;48.030;11.598;2022-11-09T06:48:08;13.50;;;3.37;;
16512;SDS011;8369;48.030;11.598;2022-11-09T06:50:38;4.20;;;2.40;;
16512;SDS011;8369;48.030;11.598;2022-11-09T06:53:05;5.97;;;2.07;;
16512;SDS011;8369;48.030;11.598;2022-11-09T06:55:34;7.60;;;2.40;;
16512;SDS011;8369;48.030;11.598;2022-11-09T06:58:11;8.03;;;2.50;;
16512;SDS011;8369;48.030;11.598;2022-11-09T07:00:39;5.43;;;2.30;;
16512;SDS011;8369;48.030;11.598;2022-11-09T07:03:06;5.33;;;2.07;;
16512;SDS011;8369;48.030;11.598;2022-11-09T07:05:31;2.00;;;1.70;;
16512;SDS011;8369;48.030;11.598;2022-11-09T07:08:01;2.57;;;1.67;;
16512;SDS011;8369;48.030;11.598;2022-11-09T07:10:27;5.23;;;1.63;;
16512;SDS011;8369;48.030;11.598;2022-11-09T07:12:55;2.23;;;1.30;;
16512;SDS011;8369;48.030;11.598;2022-11-09T07:15:22;3.53;;;1.20;;
16512;SDS011;8369;48.030;11.598;2022-11-09T07:17:48;1.20;;;1.10;;
16512;SDS011;8369;48.030;11.598;2022-11-09T07:20:14;1.73;;;1.20;;
16512;SDS011;8369;48.030;11.598;2022-11-09T07:22:39;1.40;;;1.30;;
16512;SDS011;8369;48.030;11.598;2022-11-09T07:25:06;1.30;;;1.20;;
16512;SDS011;8369;48.030;11.598;2022-11-09T07:27:33;1.57;;;1.10;;
16512;SDS011;8369;48.030;11.598;2022-11-09T07:29:59;1.00;;;0.93;;
16512;SDS011;8369;48.030;11.598;2022-11-09T07:32:25;1.33;;;1.23;;
16512;SDS011;8369;48.030;11.598;2022-11-09T07:34:51;2.00;;;1.50;;
16512;SDS011;8369;48.030;11.598;2022-11-09T07:37:16;3.20;;;2.17;;
16512;SDS011;8369;48.030;11.598;2022-11-09T07:39:42;3.33;;;2.30;;
16512;SDS011;8369;48.030;11.598;2022-11-09T07:42:08;3.80;;;2.80;;
16512;SDS011;8369;48.030;11.598;2022-11-09T07:44:34;3.73;;;2.30;;
16512;SDS011;8369;48.030;11.598;2022-11-09T07:47:00;2.77;;;2.13;;
16512;SDS011;8369;48.030;11.598;2022-11-09T07:49:26;1.97;;;1.73;;
16512;SDS011;8369;48.030;11.598;2022-11-09T07:51:52;3.57;;;2.17;;
16512;SDS011;8369;48.030;11.598;2022-11-09T07:54:18;2.47;;;1.83;;
16512;SDS011;8369;48.030;11.598;2022-11-09T07:56:44;2.80;;;1.77;;
16512;SDS011;8369;48.030;11.598;2022-11-09T07:59:10;2.50;;;1.77;;
16512;SDS011;8369;48.030;11.598;2022-11-09T08:01:36;3.13;;;1.90;;
16512;SDS011;8369;48.030;11.598;2022-11-09T08:04:01;3.20;;;1.80;;
16512;SDS011;8369;48.030;11.598;2022-11-09T08:06:28;3.37;;;2.20;;
16512;SDS011;8369;48.030;11.598;2022-11-09T08:08:54;6.67;;;3.77;;
16512;SDS011;8369;48.030;11.598;2022-11-09T08:11:20;8.03;;;3.03;;
16512;SDS011;8369;48.030;11.598;2022-11-09T08:13:46;8.27;;;3.00;;
16512;SDS011;8369;48.030;11.598;2022-11-09T08:16:11;3.00;;;2.30;;
16512;SDS011;8369;48.030;11.598;2022-11-09T08:18:37;4.63;;;2.40;;
16512;SDS011;8369;48.030;11.598;2022-11-09T08:21:03;11.00;;;2.90;;
16512;SDS011;8369;48.030;11.598;2022-11-09T08:23:31;2.70;;;2.30;;
16512;SDS011;8369;48.030;11.598;2022-11-09T08:26:00;9.80;;;2.33;;
16512;SDS011;8369;48.030;11.598;2022-11-09T08:28:27;2.10;;;1.90;;
16512;SDS011;8369;48.030;11.598;2022-11-09T08:30:57;5.33;;;1.93;;
16512;SDS011;8369;48.030;11.598;2022-11-09T08:33:26;2.70;;;1.90;;
16512;SDS011;8369;48.030;11.598;2022-11-09T08:35:54;2.20;;;1.50;;
16512;SDS011;8369;48.030;11.598;2022-11-09T08:38:20;2.30;;;1.47;;
16512;SDS011;8369;48.030;11.598;2022-11-09T08:40:46;4.20;;;1.50;;
16512;SDS011;8369;48.030;11.598;2022-11-09T08:43:12;2.50;;;1.80;;
16512;SDS011;8369;48.030;11.598;2022-11-09T08:45:43;2.60;;;1.77;;
16512;SDS011;8369;48.030;11.598;2022-11-09T08:48:09;2.90;;;1.63;;
16512;SDS011;8369;48.030;11.598;2022-11-09T08:50:36;3.33;;;2.00;;
16512;SDS011;8369;48.030;11.598;2022-11-09T08:53:02;3.10;;;1.83;;
16512;SDS011;8369;48.030;11.598;2022-11-09T08:55:28;3.47;;;2.00;;
16512;SDS011;8369;48.030;11.598;2022-11-09T08:57:56;2.27;;;1.77;;
16512;SDS011;8369;48.030;11.598;2022-11-09T09:00:23;3.43;;;1.50;;
16512;SDS011;8369;48.030;11.598;2022-11-09T09:02:49;2.93;;;1.50;;
16512;SDS011;8369;48.030;11.598;2022-11-09T09:05:15;2.00;;;1.50;;
16512;SDS011;8369;48.030;11.598;2022-11-09T09:07:41;2.80;;;1.57;;
16512;SDS011;8369;48.030;11.598;2022-11-09T09:10:07;2.27;;;1.30;;
16512;SDS011;8369;48.030;11.598;2022-11-09T09:12:33;2.53;;;1.50;;
16512;SDS011;8369;48.030;11.598;2022-11-09T09:14:59;1.70;;;1.40;;
16512;SDS011;8369;48.030;11.598;2022-11-09T09:17:25;1.70;;;1.40;;
16512;SDS011;8369;48.030;11.598;2022-11-09T09:19:51;1.23;;;1.17;;
16512;SDS011;8369;48.030;11.598;2022-11-09T09:22:17;1.37;;;1.27;;
16512;SDS011;8369;48.030;11.598;2022-11-09T09:24:43;1.30;;;1.20;;
16512;SDS011;8369;48.030;11.598;2022-11-09T09:27:09;1.33;;;1.23;;
16512;SDS011;8369;48.030;11.598;2022-11-09T09:29:35;2.20;;;1.33;;
16512;SDS011;8369;48.030;11.598;2022-11-09T09:32:00;1.30;;;1.20;;
16512;SDS011;8369;48.030;11.598;2022-11-09T09:34:26;1.30;;;1.20;;
16512;SDS011;8369;48.030;11.598;2022-11-09T09:36:52;1.10;;;1.00;;
16512;SDS011;8369;48.030;11.598;2022-11-09T09:39:18;2.20;;;1.40;;
16512;SDS011;8369;48.030;11.598;2022-11-09T09:41:45;1.80;;;1.47;;
16512;SDS011;8369;48.030;11.598;2022-11-09T09:47:14;2.70;;;1.87;;
16512;SDS011;8369;48.030;11.598;2022-11-09T09:49:47;1.40;;;1.30;;
16512;SDS011;8369;48.030;11.598;2022-11-09T09:52:36;1.90;;;1.30;;
16512;SDS011;8369;48.030;11.598;2022-11-09T09:55:38;1.50;;;1.20;;
16512;SDS011;8369;48.030;11.598;2022-11-09T09:58:15;3.27;;;1.30;;
16512;SDS011;8369;48.030;11.598;2022-11-09T10:00:49;1.50;;;1.40;;
16512;SDS011;8369;48.030;11.598;2022-11-09T10:03:19;4.60;;;1.30;;
16512;SDS011;8369;48.030;11.598;2022-11-09T10:08:54;2.00;;;1.50;;
16512;SDS011;8369;48.030;11.598;2022-11-09T10:17:13;2.80;;;1.30;;
16512;SDS011;8369;48.030;11.598;2022-11-09T10:22:22;2.20;;;1.33;;
16512;SDS011;8369;48.030;11.598;2022-11-09T10:24:59;2.20;;;1.20;;
16512;SDS011;8369;48.030;11.598;2022-11-09T10:27:35;1.30;;;1.20;;
16512;SDS011;8369;48.030;11.598;2022-11-09T10:30:12;5.47;;;1.50;;
16512;SDS011;8369;48.030;11.598;2022-11-09T10:32:42;1.70;;;1.40;;
16512;SDS011;8369;48.030;11.598;2022-11-09T10:37:50;2.67;;;1.30;;
16512;SDS011;8369;48.030;11.598;2022-11-09T10:40:33;1.30;;;1.20;;
16512;SDS011;8369;48.030;11.598;2022-11-09T10:43:05;1.40;;;1.30;;
16512;SDS011;8369;48.030;11.598;2022-11-09T10:48:05;1.67;;;1.40;;
16512;SDS011;8369;48.030;11.598;2022-11-09T10:53:08;3.00;;;1.40;;
16512;SDS011;8369;48.030;11.598;2022-11-09T10:55:34;4.47;;;1.50;;
16512;SDS011;8369;48.030;11.598;2022-11-09T11:00:59;1.60;;;1.33;;
16512;SDS011;8369;48.030;11.598;2022-11-09T11:03:27;1.70;;;1.47;;
16512;SDS011;8369;48.030;11.598;2022-11-09T11:08:42;3.00;;;1.77;;
16512;SDS011;8369;48.030;11.598;2022-11-09T11:13:44;1.50;;;1.40;;
16512;SDS011;8369;48.030;11.598;2022-11-09T11:16:19;2.97;;;1.53;;
16512;SDS011;8369;48.030;11.598;2022-11-09T11:18:50;1.40;;;1.30;;
16512;SDS011;8369;48.030;11.598;2022-11-09T11:21:17;1.93;;;1.30;;
16512;SDS011;8369;48.030;11.598;2022-11-09T11:24:02;1.37;;;1.17;;
16512;SDS011;8369;48.030;11.598;2022-11-09T11:26:42;2.53;;;1.70;;
16512;SDS011;8369;48.030;11.598;2022-11-09T11:31:55;1.60;;;1.50;;
16512;SDS011;8369;48.030;11.598;2022-11-09T11:34:21;1.87;;;1.57;;
16512;SDS011;8369;48.030;11.598;2022-11-09T11:36:53;1.47;;;1.30;;
16512;SDS011;8369;48.030;11.598;2022-11-09T11:42:32;3.27;;;1.43;;
16512;SDS011;8369;48.030;11.598;2022-11-09T11:47:59;1.43;;;1.10;;
16512;SDS011;8369;48.030;11.598;2022-11-09T11:50:47;2.20;;;1.60;;
16512;SDS011;8369;48.030;11.598;2022-11-09T11:56:44;5.23;;;1.30;;
16512;SDS011;8369;48.030;11.598;2022-11-09T12:16:07;1.20;;;1.10;;
16512;SDS011;8369;48.030;11.598;2022-11-09T12:24:34;1.30;;;1.20;;
16512;SDS011;8369;48.030;11.598;2022-11-09T12:32:42;2.13;;;1.37;;
16512;SDS011;8369;48.030;11.598;2022-11-09T12:40:28;3.13;;;1.40;;
16512;SDS011;8369;48.030;11.598;2022-11-09T12:43:15;1.30;;;1.20;;
16512;SDS011;8369;48.030;11.598;2022-11-09T12:45:45;1.33;;;1.20;;
16512;SDS011;8369;48.030;11.598;2022-11-09T12:48:21;2.00;;;1.30;;
16512;SDS011;8369;48.030;11.598;2022-11-09T12:50:53;1.83;;;1.17;;
16512;SDS011;8369;48.030;11.598;2022-11-09T12:53:24;1.87;;;1.30;;
16512;SDS011;8369;48.030;11.598;2022-11-09T12:58:24;1.30;;;1.20;;
16512;SDS011;8369;48.030;11.598;2022-11-09T13:00:54;1.60;;;1.30;;
16512;SDS011;8369;48.030;11.598;2022-11-09T13:03:35;1.33;;;1.23;;
16512;SDS011;8369;48.030;11.598;2022-11-09T13:08:35;1.90;;;1.13;;
16512;SDS011;8369;48.030;11.598;2022-11-09T13:11:19;2.67;;;1.23;;
16512;SDS011;8369;48.030;11.598;2022-11-09T13:13:49;2.53;;;1.40;;
16512;SDS011;8369;48.030;11.598;2022-11-09T13:23:52;2.93;;;1.30;;
16512;SDS011;8369;48.030;11.598;2022-11-09T13:27:01;2.50;;;1.33;;
16512;SDS011;8369;48.030;11.598;2022-11-09T13:42:59;1.30;;;1.20;;
16512;SDS011;8369;48.030;11.598;2022-11-09T13:48:22;1.33;;;1.23;;
16512;SDS011;8369;48.030;11.598;2022-11-09T13:51:02;1.40;;;1.30;;
16512;SDS011;8369;48.030;11.598;2022-11-09T13:58:45;1.20;;;1.10;;
16512;SDS011;8369;48.030;11.598;2022-11-09T14:01:27;2.77;;;1.37;;
16512;SDS011;8369;48.030;11.598;2022-11-09T14:03:54;2.70;;;1.43;;
16512;SDS011;8369;48.030;11.598;2022-11-09T14:06:20;3.00;;;1.13;;
16512;SDS011;8369;48.030;11.598;2022-11-09T14:08:46;2.83;;;1.20;;
16512;SDS011;8369;48.030;11.598;2022-11-09T14:22:22;2.40;;;2.10;;
16512;SDS011;8369;48.030;11.598;2022-11-09T14:24:49;3.00;;;1.50;;
16512;SDS011;8369;48.030;11.598;2022-11-09T14:27:16;2.40;;;1.30;;
16512;SDS011;8369;48.030;11.598;2022-11-09T14:29:49;2.20;;;1.20;;
16512;SDS011;8369;48.030;11.598;2022-11-09T14:37:49;2.83;;;1.97;;
16512;SDS011;8369;48.030;11.598;2022-11-09T14:40:17;3.27;;;1.50;;
16512;SDS011;8369;48.030;11.598;2022-11-09T14:42:51;1.40;;;1.30;;
16512;SDS011;8369;48.030;11.598;2022-11-09T14:45:24;1.77;;;1.50;;
16512;SDS011;8369;48.030;11.598;2022-11-09T14:47:52;1.83;;;1.23;;
16512;SDS011;8369;48.030;11.598;2022-11-09T14:50:24;2.60;;;1.60;;
16512;SDS011;8369;48.030;11.598;2022-11-09T14:52:53;3.17;;;1.57;;
16512;SDS011;8369;48.030;11.598;2022-11-09T14:55:20;1.70;;;1.40;;
16512;SDS011;8369;48.030;11.598;2022-11-09T14:57:47;1.73;;;1.30;;
16512;SDS011;8369;48.030;11.598;2022-11-09T15:00:26;2.27;;;1.70;;
16512;SDS011;8369;48.030;11.598;2022-11-09T15:02:57;1.83;;;1.63;;
16512;SDS011;8369;48.030;11.598;2022-11-09T15:05:29;4.83;;;1.80;;
16512;SDS011;8369;48.030;11.598;2022-11-09T15:07:55;2.90;;;1.93;;
16512;SDS011;8369;48.030;11.598;2022-11-09T15:10:22;4.47;;;2.33;;
16512;SDS011;8369;48.030;11.598;2022-11-09T15:12:55;4.87;;;2.67;;
16512;SDS011;8369;48.030;11.598;2022-11-09T15:15:25;7.03;;;3.20;;
16512;SDS011;8369;48.030;11.598;2022-11-09T15:17:52;11.00;;;3.70;;
16512;SDS011;8369;48.030;11.598;2022-11-09T15:22:49;4.73;;;2.80;;
16512;SDS011;8369;48.030;11.598;2022-11-09T15:30:34;7.43;;;2.87;;
16512;SDS011;8369;48.030;11.598;2022-11-09T15:34:14;4.90;;;3.10;;
16512;SDS011;8369;48.030;11.598;2022-11-09T15:38:56;6.80;;;3.30;;
16512;SDS011;8369;48.030;11.598;2022-11-09T15:41:42;6.03;;;3.20;;
16512;SDS011;8369;48.030;11.598;2022-11-09T15:44:08;7.47;;;3.20;;
16512;SDS011;8369;48.030;11.598;2022-11-09T15:46:38;8.00;;;3.00;;
16512;SDS011;8369;48.030;11.598;2022-11-09T15:49:28;7.30;;;3.77;;
16512;SDS011;8369;48.030;11.598;2022-11-09T15:51:54;5.63;;;3.37;;
16512;SDS011;8369;48.030;11.598;2022-11-09T15:54:21;5.67;;;3.47;;
16512;SDS011;8369;48.030;11.598;2022-11-09T15:56:48;5.60;;;3.60;;
16512;SDS011;8369;48.030;11.598;2022-11-09T15:59:17;12.57;;;3.60;;
16512;SDS011;8369;48.030;11.598;2022-11-09T16:01:44;6.53;;;4.03;;
16512;SDS011;8369;48.030;11.598;2022-11-09T16:04:10;10.17;;;4.27;;
16512;SDS011;8369;48.030;11.598;2022-11-09T16:06:36;13.20;;;4.23;;
16512;SDS011;8369;48.030;11.598;2022-11-09T16:09:02;6.50;;;3.07;;
16512;SDS011;8369;48.030;11.598;2022-11-09T16:11:27;10.43;;;2.90;;
16512;SDS011;8369;48.030;11.598;2022-11-09T16:13:53;5.70;;;3.60;;
16512;SDS011;8369;48.030;11.598;2022-11-09T16:16:19;9.57;;;3.40;;
16512;SDS011;8369;48.030;11.598;2022-11-09T16:18:45;7.00;;;2.90;;
16512;SDS011;8369;48.030;11.598;2022-11-09T16:21:11;4.40;;;3.33;;
16512;SDS011;8369;48.030;11.598;2022-11-09T16:23:39;8.20;;;3.67;;
16512;SDS011;8369;48.030;11.598;2022-11-09T16:26:12;10.63;;;4.17;;
16512;SDS011;8369;48.030;11.598;2022-11-09T16:28:42;7.63;;;4.63;;
16512;SDS011;8369;48.030;11.598;2022-11-09T16:31:08;10.07;;;4.60;;
16512;SDS011;8369;48.030;11.598;2022-11-09T16:33:36;12.87;;;6.37;;
16512;SDS011;8369;48.030;11.598;2022-11-09T16:36:04;13.93;;;5.70;;
16512;SDS011;8369;48.030;11.598;2022-11-09T16:38:35;7.97;;;4.70;;
16512;SDS011;8369;48.030;11.598;2022-11-09T16:41:04;8.43;;;3.77;;
16512;SDS011;8369;48.030;11.598;2022-11-09T16:43:30;6.80;;;3.80;;
16512;SDS011;8369;48.030;11.598;2022-11-09T16:45:59;8.40;;;3.60;;
16512;SDS011;8369;48.030;11.598;2022-11-09T16:48:25;8.53;;;4.00;;
16512;SDS011;8369;48.030;11.598;2022-11-09T16:50:51;6.43;;;3.27;;
16512;SDS011;8369;48.030;11.598;2022-11-09T16:53:18;7.47;;;3.27;;
16512;SDS011;8369;48.030;11.598;2022-11-09T16:55:45;14.97;;;3.30;;
16512;SDS011;8369;48.030;11.598;2022-11-09T16:58:11;7.93;;;3.03;;
16512;SDS011;8369;48.030;11.598;2022-11-09T17:00:42;7.17;;;3.90;;
16512;SDS011;8369;48.030;11.598;2022-11-09T17:03:09;6.43;;;3.40;;
16512;SDS011;8369;48.030;11.598;2022-11-09T17:05:35;8.90;;;3.57;;
16512;SDS011;8369;48.030;11.598;2022-11-09T17:08:01;7.30;;;4.33;;
16512;SDS011;8369;48.030;11.598;2022-11-09T17:10:27;10.20;;;4.53;;
16512;SDS011;8369;48.030;11.598;2022-11-09T17:12:53;8.47;;;4.30;;
16512;SDS011;8369;48.030;11.598;2022-11-09T17:15:19;14.43;;;5.83;;
16512;SDS011;8369;48.030;11.598;2022-11-09T17:17:44;18.13;;;9.93;;
16512;SDS011;8369;48.030;11.598;2022-11-09T17:20:10;11.07;;;6.30;;
16512;SDS011;8369;48.030;11.598;2022-11-09T17:22:36;11.73;;;6.93;;